sensor_id;sensor_type;location;lat;lon;timestamp;P1;durP1;ratioP1;P2;durP2;ratioP2
67516;SDS011;68821;59.134;37.894;2023-04-03T00:01:21;12.40;;;1.52;;
67516;SDS011;68821;59.134;37.894;2023-04-03T00:03:47;21.08;;;2.00;;
67516;SDS011;68821;59.134;37.894;2023-04-03T00:06:15;19.25;;;1.77;;
67516;SDS011;68821;59.134;37.894;2023-04-03T00:08:41;19.05;;;2.13;;
67516;SDS011;68821;59.134;37.894;2023-04-03T00:11:07;24.40;;;2.38;;
67516;SDS011;68821;59.134;37.894;2023-04-03T00:13:35;17.67;;;1.48;;
67516;SDS011;68821;59.134;37.894;2023-04-03T00:16:02;20.40;;;1.92;;
67516;SDS011;68821;59.134;37.894;2023-04-03T00:18:28;11.38;;;1.30;;
67516;SDS011;68821;59.134;37.894;2023-04-03T00:20:55;10.32;;;1.52;;
67516;SDS011;68821;59.134;37.894;2023-04-03T00:23:21;10.73;;;1.70;;
67516;SDS011;68821;59.134;37.894;2023-04-03T00:25:49;17.25;;;1.67;;
67516;SDS011;68821;59.134;37.894;2023-04-03T00:28:16;10.63;;;1.63;;
67516;SDS011;68821;59.134;37.894;2023-04-03T00:30:42;15.98;;;1.55;;
67516;SDS011;68821;59.134;37.894;2023-04-03T00:33:09;20.33;;;1.60;;
67516;SDS011;68821;59.134;37.894;2023-04-03T00:35:38;6.20;;;1.33;;
67516;SDS011;68821;59.134;37.894;2023-04-03T00:38:04;11.02;;;1.50;;
67516;SDS011;68821;59.134;37.894;2023-04-03T00:40:33;11.85;;;1.70;;
67516;SDS011;68821;59.134;37.894;2023-04-03T00:43:01;14.32;;;1.60;;
67516;SDS011;68821;59.134;37.894;2023-04-03T00:45:36;17.15;;;1.88;;
67516;SDS011;68821;59.134;37.894;2023-04-03T00:48:04;10.95;;;1.40;;
67516;SDS011;68821;59.134;37.894;2023-04-03T00:50:37;9.60;;;1.95;;
67516;SDS011;68821;59.134;37.894;2023-04-03T00:53:06;13.10;;;1.77;;
67516;SDS011;68821;59.134;37.894;2023-04-03T00:55:35;10.73;;;1.65;;
67516;SDS011;68821;59.134;37.894;2023-04-03T00:58:03;11.85;;;1.80;;
67516;SDS011;68821;59.134;37.894;2023-04-03T01:00:32;10.40;;;1.63;;
67516;SDS011;68821;59.134;37.894;2023-04-03T01:02:59;4.90;;;1.35;;
67516;SDS011;68821;59.134;37.894;2023-04-03T01:05:25;21.10;;;2.00;;
67516;SDS011;68821;59.134;37.894;2023-04-03T01:07:52;17.52;;;1.65;;
67516;SDS011;68821;59.134;37.894;2023-04-03T01:10:18;8.23;;;2.15;;
67516;SDS011;68821;59.134;37.894;2023-04-03T01:12:47;10.32;;;1.70;;
67516;SDS011;68821;59.134;37.894;2023-04-03T01:15:17;8.60;;;1.88;;
67516;SDS011;68821;59.134;37.894;2023-04-03T01:17:49;9.27;;;1.50;;
67516;SDS011;68821;59.134;37.894;2023-04-03T01:25:49;13.98;;;2.00;;
67516;SDS011;68821;59.134;37.894;2023-04-03T01:28:18;5.55;;;1.35;;
67516;SDS011;68821;59.134;37.894;2023-04-03T01:33:15;5.93;;;1.58;;
67516;SDS011;68821;59.134;37.894;2023-04-03T01:35:42;14.27;;;1.35;;
67516;SDS011;68821;59.134;37.894;2023-04-03T01:38:08;8.07;;;1.70;;
67516;SDS011;68821;59.134;37.894;2023-04-03T01:40:34;7.57;;;1.80;;
67516;SDS011;68821;59.134;37.894;2023-04-03T01:43:00;8.80;;;1.55;;
67516;SDS011;68821;59.134;37.894;2023-04-03T01:45:26;4.75;;;1.33;;
67516;SDS011;68821;59.134;37.894;2023-04-03T01:47:52;7.55;;;1.70;;
67516;SDS011;68821;59.134;37.894;2023-04-03T01:50:18;9.43;;;1.60;;
67516;SDS011;68821;59.134;37.894;2023-04-03T01:52:44;5.15;;;1.58;;
67516;SDS011;68821;59.134;37.894;2023-04-03T01:55:11;9.45;;;1.60;;
67516;SDS011;68821;59.134;37.894;2023-04-03T01:57:37;13.68;;;1.58;;
67516;SDS011;68821;59.134;37.894;2023-04-03T02:00:03;5.55;;;1.58;;
67516;SDS011;68821;59.134;37.894;2023-04-03T02:02:30;6.13;;;1.80;;
67516;SDS011;68821;59.134;37.894;2023-04-03T02:04:56;5.40;;;1.50;;
67516;SDS011;68821;59.134;37.894;2023-04-03T02:07:22;7.50;;;1.50;;
67516;SDS011;68821;59.134;37.894;2023-04-03T02:09:49;8.77;;;1.70;;
67516;SDS011;68821;59.134;37.894;2023-04-03T02:12:15;14.70;;;1.70;;
67516;SDS011;68821;59.134;37.894;2023-04-03T02:14:41;11.18;;;1.33;;
67516;SDS011;68821;59.134;37.894;2023-04-03T02:17:07;7.88;;;1.27;;
67516;SDS011;68821;59.134;37.894;2023-04-03T02:19:34;27.25;;;1.88;;
67516;SDS011;68821;59.134;37.894;2023-04-03T02:22:02;6.15;;;2.00;;
67516;SDS011;68821;59.134;37.894;2023-04-03T02:24:29;9.60;;;1.90;;
67516;SDS011;68821;59.134;37.894;2023-04-03T02:26:56;8.40;;;1.73;;
67516;SDS011;68821;59.134;37.894;2023-04-03T02:29:23;10.10;;;1.52;;
67516;SDS011;68821;59.134;37.894;2023-04-03T02:31:49;8.93;;;1.70;;
67516;SDS011;68821;59.134;37.894;2023-04-03T02:34:16;4.47;;;1.40;;
67516;SDS011;68821;59.134;37.894;2023-04-03T02:36:43;9.00;;;1.48;;
67516;SDS011;68821;59.134;37.894;2023-04-03T02:39:10;7.68;;;1.80;;
67516;SDS011;68821;59.134;37.894;2023-04-03T02:41:37;8.27;;;1.60;;
67516;SDS011;68821;59.134;37.894;2023-04-03T02:44:04;7.45;;;1.70;;
67516;SDS011;68821;59.134;37.894;2023-04-03T02:46:32;5.82;;;2.08;;
67516;SDS011;68821;59.134;37.894;2023-04-03T02:48:59;9.30;;;1.65;;
67516;SDS011;68821;59.134;37.894;2023-04-03T02:51:25;5.57;;;2.40;;
67516;SDS011;68821;59.134;37.894;2023-04-03T02:53:51;7.40;;;2.00;;
67516;SDS011;68821;59.134;37.894;2023-04-03T02:56:18;8.00;;;2.28;;
67516;SDS011;68821;59.134;37.894;2023-04-03T02:58:44;7.93;;;2.05;;
67516;SDS011;68821;59.134;37.894;2023-04-03T03:01:10;5.97;;;2.08;;
67516;SDS011;68821;59.134;37.894;2023-04-03T03:03:38;7.07;;;2.55;;
67516;SDS011;68821;59.134;37.894;2023-04-03T03:06:05;14.50;;;2.33;;
67516;SDS011;68821;59.134;37.894;2023-04-03T03:08:36;16.23;;;2.60;;
67516;SDS011;68821;59.134;37.894;2023-04-03T03:11:03;10.07;;;1.88;;
67516;SDS011;68821;59.134;37.894;2023-04-03T03:13:30;9.90;;;2.38;;
67516;SDS011;68821;59.134;37.894;2023-04-03T03:15:57;8.82;;;2.00;;
67516;SDS011;68821;59.134;37.894;2023-04-03T03:18:23;4.82;;;1.65;;
67516;SDS011;68821;59.134;37.894;2023-04-03T03:20:53;10.38;;;1.90;;
67516;SDS011;68821;59.134;37.894;2023-04-03T03:23:20;8.77;;;1.73;;
67516;SDS011;68821;59.134;37.894;2023-04-03T03:25:48;10.50;;;2.15;;
67516;SDS011;68821;59.134;37.894;2023-04-03T03:28:14;10.23;;;1.92;;
67516;SDS011;68821;59.134;37.894;2023-04-03T03:30:40;9.93;;;2.40;;
67516;SDS011;68821;59.134;37.894;2023-04-03T03:33:06;9.80;;;3.03;;
67516;SDS011;68821;59.134;37.894;2023-04-03T03:35:32;9.45;;;2.83;;
67516;SDS011;68821;59.134;37.894;2023-04-03T03:37:59;12.73;;;2.33;;
67516;SDS011;68821;59.134;37.894;2023-04-03T03:40:25;12.57;;;2.50;;
67516;SDS011;68821;59.134;37.894;2023-04-03T03:42:51;12.00;;;1.98;;
67516;SDS011;68821;59.134;37.894;2023-04-03T03:45:17;13.93;;;3.03;;
67516;SDS011;68821;59.134;37.894;2023-04-03T03:47:43;14.70;;;2.33;;
67516;SDS011;68821;59.134;37.894;2023-04-03T03:50:09;8.23;;;2.20;;
67516;SDS011;68821;59.134;37.894;2023-04-03T03:52:36;8.85;;;2.40;;
67516;SDS011;68821;59.134;37.894;2023-04-03T03:55:02;7.35;;;3.10;;
67516;SDS011;68821;59.134;37.894;2023-04-03T03:57:29;6.82;;;2.72;;
67516;SDS011;68821;59.134;37.894;2023-04-03T03:59:56;20.55;;;2.55;;
67516;SDS011;68821;59.134;37.894;2023-04-03T04:02:22;15.02;;;2.15;;
67516;SDS011;68821;59.134;37.894;2023-04-03T04:04:48;8.95;;;3.10;;
67516;SDS011;68821;59.134;37.894;2023-04-03T04:07:14;8.38;;;2.17;;
67516;SDS011;68821;59.134;37.894;2023-04-03T04:09:41;5.90;;;1.95;;
67516;SDS011;68821;59.134;37.894;2023-04-03T04:12:07;9.88;;;2.20;;
67516;SDS011;68821;59.134;37.894;2023-04-03T04:14:33;16.05;;;2.30;;
67516;SDS011;68821;59.134;37.894;2023-04-03T04:16:59;7.28;;;1.83;;
67516;SDS011;68821;59.134;37.894;2023-04-03T04:19:28;12.65;;;1.77;;
67516;SDS011;68821;59.134;37.894;2023-04-03T04:21:55;16.08;;;1.55;;
67516;SDS011;68821;59.134;37.894;2023-04-03T04:24:21;12.60;;;2.03;;
67516;SDS011;68821;59.134;37.894;2023-04-03T04:26:48;6.43;;;1.75;;
67516;SDS011;68821;59.134;37.894;2023-04-03T04:29:14;12.70;;;2.03;;
67516;SDS011;68821;59.134;37.894;2023-04-03T04:31:41;8.48;;;1.77;;
67516;SDS011;68821;59.134;37.894;2023-04-03T04:34:07;18.58;;;1.85;;
67516;SDS011;68821;59.134;37.894;2023-04-03T04:36:34;10.02;;;1.95;;
67516;SDS011;68821;59.134;37.894;2023-04-03T04:39:00;11.10;;;2.00;;
67516;SDS011;68821;59.134;37.894;2023-04-03T04:41:27;15.38;;;2.00;;
67516;SDS011;68821;59.134;37.894;2023-04-03T04:43:53;14.80;;;1.58;;
67516;SDS011;68821;59.134;37.894;2023-04-03T04:46:20;8.48;;;2.10;;
67516;SDS011;68821;59.134;37.894;2023-04-03T04:48:46;8.85;;;2.10;;
67516;SDS011;68821;59.134;37.894;2023-04-03T04:53:40;9.48;;;1.98;;
67516;SDS011;68821;59.134;37.894;2023-04-03T04:56:06;8.75;;;1.60;;
67516;SDS011;68821;59.134;37.894;2023-04-03T04:58:33;12.60;;;2.03;;
67516;SDS011;68821;59.134;37.894;2023-04-03T05:00:59;9.15;;;2.08;;
67516;SDS011;68821;59.134;37.894;2023-04-03T05:05:52;11.25;;;2.30;;
67516;SDS011;68821;59.134;37.894;2023-04-03T05:08:18;19.52;;;2.70;;
67516;SDS011;68821;59.134;37.894;2023-04-03T05:10:45;13.07;;;2.60;;
67516;SDS011;68821;59.134;37.894;2023-04-03T05:13:11;19.25;;;2.20;;
67516;SDS011;68821;59.134;37.894;2023-04-03T05:15:37;11.90;;;2.60;;
67516;SDS011;68821;59.134;37.894;2023-04-03T05:18:03;10.13;;;1.95;;
67516;SDS011;68821;59.134;37.894;2023-04-03T05:20:31;22.15;;;4.22;;
67516;SDS011;68821;59.134;37.894;2023-04-03T05:22:57;13.38;;;4.82;;
67516;SDS011;68821;59.134;37.894;2023-04-03T05:25:23;12.52;;;3.75;;
67516;SDS011;68821;59.134;37.894;2023-04-03T05:27:50;15.20;;;5.47;;
67516;SDS011;68821;59.134;37.894;2023-04-03T05:30:16;9.93;;;4.10;;
67516;SDS011;68821;59.134;37.894;2023-04-03T05:32:43;13.77;;;2.95;;
67516;SDS011;68821;59.134;37.894;2023-04-03T05:35:09;12.27;;;4.07;;
67516;SDS011;68821;59.134;37.894;2023-04-03T05:37:35;12.70;;;3.42;;
67516;SDS011;68821;59.134;37.894;2023-04-03T05:40:02;12.48;;;3.42;;
67516;SDS011;68821;59.134;37.894;2023-04-03T05:42:29;9.95;;;2.55;;
67516;SDS011;68821;59.134;37.894;2023-04-03T05:44:56;7.15;;;2.53;;
67516;SDS011;68821;59.134;37.894;2023-04-03T05:47:22;10.48;;;3.20;;
67516;SDS011;68821;59.134;37.894;2023-04-03T05:49:48;6.57;;;2.38;;
67516;SDS011;68821;59.134;37.894;2023-04-03T05:52:23;10.60;;;3.53;;
67516;SDS011;68821;59.134;37.894;2023-04-03T05:54:51;11.07;;;3.22;;
67516;SDS011;68821;59.134;37.894;2023-04-03T05:57:17;8.93;;;2.58;;
67516;SDS011;68821;59.134;37.894;2023-04-03T05:59:45;9.05;;;3.17;;
67516;SDS011;68821;59.134;37.894;2023-04-03T06:02:12;12.57;;;2.92;;
67516;SDS011;68821;59.134;37.894;2023-04-03T06:04:42;11.13;;;2.97;;
67516;SDS011;68821;59.134;37.894;2023-04-03T06:07:12;12.77;;;4.05;;
67516;SDS011;68821;59.134;37.894;2023-04-03T06:09:41;9.50;;;3.25;;
67516;SDS011;68821;59.134;37.894;2023-04-03T06:12:08;9.02;;;2.30;;
67516;SDS011;68821;59.134;37.894;2023-04-03T06:14:34;9.18;;;2.90;;
67516;SDS011;68821;59.134;37.894;2023-04-03T06:17:01;8.40;;;2.85;;
67516;SDS011;68821;59.134;37.894;2023-04-03T06:19:27;8.50;;;2.97;;
67516;SDS011;68821;59.134;37.894;2023-04-03T06:21:54;13.45;;;3.03;;
67516;SDS011;68821;59.134;37.894;2023-04-03T06:24:20;10.43;;;2.70;;
67516;SDS011;68821;59.134;37.894;2023-04-03T06:26:48;7.13;;;2.72;;
67516;SDS011;68821;59.134;37.894;2023-04-03T06:29:17;12.10;;;2.85;;
67516;SDS011;68821;59.134;37.894;2023-04-03T06:31:43;7.20;;;2.55;;
67516;SDS011;68821;59.134;37.894;2023-04-03T06:34:10;9.98;;;3.33;;
67516;SDS011;68821;59.134;37.894;2023-04-03T06:36:37;10.25;;;3.63;;
67516;SDS011;68821;59.134;37.894;2023-04-03T06:39:04;9.93;;;3.45;;
67516;SDS011;68821;59.134;37.894;2023-04-03T06:41:30;7.53;;;2.97;;
67516;SDS011;68821;59.134;37.894;2023-04-03T06:43:57;8.45;;;2.83;;
67516;SDS011;68821;59.134;37.894;2023-04-03T06:46:24;8.88;;;2.95;;
67516;SDS011;68821;59.134;37.894;2023-04-03T06:48:51;7.25;;;2.83;;
67516;SDS011;68821;59.134;37.894;2023-04-03T06:51:19;7.80;;;2.70;;
67516;SDS011;68821;59.134;37.894;2023-04-03T06:53:47;10.45;;;4.05;;
67516;SDS011;68821;59.134;37.894;2023-04-03T06:56:14;20.42;;;8.85;;
67516;SDS011;68821;59.134;37.894;2023-04-03T06:58:41;9.65;;;2.50;;
67516;SDS011;68821;59.134;37.894;2023-04-03T07:01:08;7.88;;;2.95;;
67516;SDS011;68821;59.134;37.894;2023-04-03T07:03:35;9.43;;;3.10;;
67516;SDS011;68821;59.134;37.894;2023-04-03T07:06:03;14.98;;;3.20;;
67516;SDS011;68821;59.134;37.894;2023-04-03T07:08:29;9.60;;;3.10;;
67516;SDS011;68821;59.134;37.894;2023-04-03T07:10:59;17.52;;;4.05;;
67516;SDS011;68821;59.134;37.894;2023-04-03T07:13:26;11.75;;;3.65;;
67516;SDS011;68821;59.134;37.894;2023-04-03T07:15:52;9.02;;;3.10;;
67516;SDS011;68821;59.134;37.894;2023-04-03T07:18:19;9.95;;;3.95;;
67516;SDS011;68821;59.134;37.894;2023-04-03T07:20:45;14.43;;;3.55;;
67516;SDS011;68821;59.134;37.894;2023-04-03T07:23:11;9.38;;;3.78;;
67516;SDS011;68821;59.134;37.894;2023-04-03T07:25:48;8.80;;;3.13;;
67516;SDS011;68821;59.134;37.894;2023-04-03T07:28:16;11.27;;;3.70;;
67516;SDS011;68821;59.134;37.894;2023-04-03T07:30:44;7.57;;;2.97;;
67516;SDS011;68821;59.134;37.894;2023-04-03T07:33:12;7.28;;;3.00;;
67516;SDS011;68821;59.134;37.894;2023-04-03T07:35:40;7.68;;;2.58;;
67516;SDS011;68821;59.134;37.894;2023-04-03T07:38:08;9.20;;;3.05;;
67516;SDS011;68821;59.134;37.894;2023-04-03T07:40:35;9.10;;;2.97;;
67516;SDS011;68821;59.134;37.894;2023-04-03T07:43:02;7.68;;;2.95;;
67516;SDS011;68821;59.134;37.894;2023-04-03T07:45:28;9.02;;;3.33;;
67516;SDS011;68821;59.134;37.894;2023-04-03T07:47:54;11.50;;;3.55;;
67516;SDS011;68821;59.134;37.894;2023-04-03T07:50:22;9.98;;;3.53;;
67516;SDS011;68821;59.134;37.894;2023-04-03T07:52:48;7.22;;;2.60;;
67516;SDS011;68821;59.134;37.894;2023-04-03T07:55:16;8.02;;;2.58;;
67516;SDS011;68821;59.134;37.894;2023-04-03T07:57:42;7.97;;;2.92;;
67516;SDS011;68821;59.134;37.894;2023-04-03T08:00:09;8.40;;;3.15;;
67516;SDS011;68821;59.134;37.894;2023-04-03T08:02:38;9.18;;;2.65;;
67516;SDS011;68821;59.134;37.894;2023-04-03T08:05:04;9.57;;;2.72;;
67516;SDS011;68821;59.134;37.894;2023-04-03T08:07:31;7.22;;;3.03;;
67516;SDS011;68821;59.134;37.894;2023-04-03T08:09:57;9.07;;;3.55;;
67516;SDS011;68821;59.134;37.894;2023-04-03T08:12:23;8.20;;;3.03;;
67516;SDS011;68821;59.134;37.894;2023-04-03T08:14:49;8.48;;;2.50;;
67516;SDS011;68821;59.134;37.894;2023-04-03T08:17:15;10.75;;;3.33;;
67516;SDS011;68821;59.134;37.894;2023-04-03T08:19:42;9.10;;;3.20;;
67516;SDS011;68821;59.134;37.894;2023-04-03T08:22:08;10.02;;;3.17;;
67516;SDS011;68821;59.134;37.894;2023-04-03T08:24:34;9.57;;;2.63;;
67516;SDS011;68821;59.134;37.894;2023-04-03T08:27:00;7.50;;;2.70;;
67516;SDS011;68821;59.134;37.894;2023-04-03T08:29:27;7.65;;;3.17;;
67516;SDS011;68821;59.134;37.894;2023-04-03T08:31:53;7.60;;;3.13;;
67516;SDS011;68821;59.134;37.894;2023-04-03T08:34:20;7.88;;;2.58;;
67516;SDS011;68821;59.134;37.894;2023-04-03T08:36:47;8.55;;;3.40;;
67516;SDS011;68821;59.134;37.894;2023-04-03T08:39:13;6.35;;;2.50;;
67516;SDS011;68821;59.134;37.894;2023-04-03T08:41:40;6.03;;;2.70;;
67516;SDS011;68821;59.134;37.894;2023-04-03T08:47:26;7.45;;;2.65;;
67516;SDS011;68821;59.134;37.894;2023-04-03T08:50:04;7.47;;;2.67;;
67516;SDS011;68821;59.134;37.894;2023-04-03T08:52:47;7.40;;;2.60;;
67516;SDS011;68821;59.134;37.894;2023-04-03T08:58:06;6.13;;;2.40;;
67516;SDS011;68821;59.134;37.894;2023-04-03T09:00:46;7.70;;;3.13;;
67516;SDS011;68821;59.134;37.894;2023-04-03T09:03:38;6.35;;;2.45;;
67516;SDS011;68821;59.134;37.894;2023-04-03T09:14:55;7.85;;;3.72;;
67516;SDS011;68821;59.134;37.894;2023-04-03T09:17:41;8.10;;;3.63;;
67516;SDS011;68821;59.134;37.894;2023-04-03T09:21:17;10.20;;;3.80;;
67516;SDS011;68821;59.134;37.894;2023-04-03T09:25:46;6.82;;;2.88;;
67516;SDS011;68821;59.134;37.894;2023-04-03T09:28:13;6.93;;;2.83;;
67516;SDS011;68821;59.134;37.894;2023-04-03T09:30:40;10.02;;;3.17;;
67516;SDS011;68821;59.134;37.894;2023-04-03T09:33:07;6.78;;;2.75;;
67516;SDS011;68821;59.134;37.894;2023-04-03T09:35:35;9.13;;;3.25;;
67516;SDS011;68821;59.134;37.894;2023-04-03T09:40:36;6.55;;;2.40;;
67516;SDS011;68821;59.134;37.894;2023-04-03T09:45:44;5.13;;;1.95;;
67516;SDS011;68821;59.134;37.894;2023-04-03T09:50:52;8.02;;;2.60;;
67516;SDS011;68821;59.134;37.894;2023-04-03T09:53:37;7.18;;;2.72;;
67516;SDS011;68821;59.134;37.894;2023-04-03T09:58:47;7.40;;;2.03;;
67516;SDS011;68821;59.134;37.894;2023-04-03T10:01:33;8.35;;;2.13;;
67516;SDS011;68821;59.134;37.894;2023-04-03T10:04:09;7.43;;;2.90;;
67516;SDS011;68821;59.134;37.894;2023-04-03T10:09:21;8.77;;;3.63;;
67516;SDS011;68821;59.134;37.894;2023-04-03T10:14:23;9.10;;;3.58;;
67516;SDS011;68821;59.134;37.894;2023-04-03T10:16:54;10.68;;;3.00;;
67516;SDS011;68821;59.134;37.894;2023-04-03T10:19:33;7.32;;;2.35;;
67516;SDS011;68821;59.134;37.894;2023-04-03T10:25:31;10.10;;;4.28;;
67516;SDS011;68821;59.134;37.894;2023-04-03T10:28:08;14.85;;;5.50;;
67516;SDS011;68821;59.134;37.894;2023-04-03T10:31:04;9.52;;;3.90;;
67516;SDS011;68821;59.134;37.894;2023-04-03T10:41:54;7.15;;;3.08;;
67516;SDS011;68821;59.134;37.894;2023-04-03T10:44:57;7.68;;;3.33;;
67516;SDS011;68821;59.134;37.894;2023-04-03T10:53:45;7.40;;;2.72;;
67516;SDS011;68821;59.134;37.894;2023-04-03T10:56:48;7.15;;;2.70;;
67516;SDS011;68821;59.134;37.894;2023-04-03T10:59:24;5.38;;;2.60;;
67516;SDS011;68821;59.134;37.894;2023-04-03T11:02:06;8.02;;;3.25;;
67516;SDS011;68821;59.134;37.894;2023-04-03T11:04:36;7.22;;;3.00;;
67516;SDS011;68821;59.134;37.894;2023-04-03T11:09:44;7.47;;;2.97;;
67516;SDS011;68821;59.134;37.894;2023-04-03T11:14:43;6.95;;;2.55;;
67516;SDS011;68821;59.134;37.894;2023-04-03T11:17:21;9.57;;;3.55;;
67516;SDS011;68821;59.134;37.894;2023-04-03T11:22:25;7.63;;;2.90;;
67516;SDS011;68821;59.134;37.894;2023-04-03T11:27:44;8.45;;;3.88;;
67516;SDS011;68821;59.134;37.894;2023-04-03T11:30:20;12.20;;;4.00;;
67516;SDS011;68821;59.134;37.894;2023-04-03T11:32:56;14.48;;;4.05;;
67516;SDS011;68821;59.134;37.894;2023-04-03T11:35:26;8.73;;;3.05;;
67516;SDS011;68821;59.134;37.894;2023-04-03T11:37:53;8.77;;;3.53;;
67516;SDS011;68821;59.134;37.894;2023-04-03T11:45:29;8.55;;;3.00;;
67516;SDS011;68821;59.134;37.894;2023-04-03T11:48:01;9.57;;;3.50;;
67516;SDS011;68821;59.134;37.894;2023-04-03T12:16:21;9.00;;;3.10;;
67516;SDS011;68821;59.134;37.894;2023-04-03T12:24:22;8.00;;;2.70;;
67516;SDS011;68821;59.134;37.894;2023-04-03T12:32:04;12.57;;;4.68;;
67516;SDS011;68821;59.134;37.894;2023-04-03T12:45:15;8.32;;;3.35;;
67516;SDS011;68821;59.134;37.894;2023-04-03T12:47:51;8.20;;;3.35;;
67516;SDS011;68821;59.134;37.894;2023-04-03T12:53:06;7.45;;;2.88;;
67516;SDS011;68821;59.134;37.894;2023-04-03T12:55:38;7.13;;;2.95;;
67516;SDS011;68821;59.134;37.894;2023-04-03T13:01:00;7.40;;;2.90;;
67516;SDS011;68821;59.134;37.894;2023-04-03T13:03:28;6.22;;;2.45;;
67516;SDS011;68821;59.134;37.894;2023-04-03T13:05:57;7.75;;;2.85;;
67516;SDS011;68821;59.134;37.894;2023-04-03T13:08:26;11.20;;;3.72;;
67516;SDS011;68821;59.134;37.894;2023-04-03T13:10:54;9.40;;;3.45;;
67516;SDS011;68821;59.134;37.894;2023-04-03T13:13:23;9.95;;;4.20;;
67516;SDS011;68821;59.134;37.894;2023-04-03T13:15:53;10.25;;;3.60;;
67516;SDS011;68821;59.134;37.894;2023-04-03T13:18:24;6.60;;;3.45;;
67516;SDS011;68821;59.134;37.894;2023-04-03T13:20:51;9.23;;;4.20;;
67516;SDS011;68821;59.134;37.894;2023-04-03T13:23:19;8.45;;;3.25;;
67516;SDS011;68821;59.134;37.894;2023-04-03T13:25:46;13.45;;;4.10;;
67516;SDS011;68821;59.134;37.894;2023-04-03T13:28:15;9.25;;;4.53;;
67516;SDS011;68821;59.134;37.894;2023-04-03T13:31:05;11.02;;;5.00;;
67516;SDS011;68821;59.134;37.894;2023-04-03T13:33:36;8.70;;;3.55;;
67516;SDS011;68821;59.134;37.894;2023-04-03T13:36:22;12.13;;;3.63;;
67516;SDS011;68821;59.134;37.894;2023-04-03T13:39:38;8.23;;;3.58;;
67516;SDS011;68821;59.134;37.894;2023-04-03T13:41:45;11.82;;;4.53;;
67516;SDS011;68821;59.134;37.894;2023-04-03T13:51:57;9.73;;;3.13;;
67516;SDS011;68821;59.134;37.894;2023-04-03T13:54:37;8.85;;;3.70;;
67516;SDS011;68821;59.134;37.894;2023-04-03T13:57:11;11.13;;;3.13;;
67516;SDS011;68821;59.134;37.894;2023-04-03T13:59:39;8.95;;;2.97;;
67516;SDS011;68821;59.134;37.894;2023-04-03T14:04:46;7.00;;;2.65;;
67516;SDS011;68821;59.134;37.894;2023-04-03T14:07:16;9.63;;;3.05;;
67516;SDS011;68821;59.134;37.894;2023-04-03T14:12:17;9.95;;;3.45;;
67516;SDS011;68821;59.134;37.894;2023-04-03T14:14:50;8.75;;;4.20;;
67516;SDS011;68821;59.134;37.894;2023-04-03T14:17:18;11.73;;;3.35;;
67516;SDS011;68821;59.134;37.894;2023-04-03T14:19:46;8.27;;;3.08;;
67516;SDS011;68821;59.134;37.894;2023-04-03T14:22:19;9.02;;;3.08;;
67516;SDS011;68821;59.134;37.894;2023-04-03T14:24:57;7.20;;;2.60;;
67516;SDS011;68821;59.134;37.894;2023-04-03T14:27:28;6.68;;;2.30;;
67516;SDS011;68821;59.134;37.894;2023-04-03T14:29:58;12.88;;;6.20;;
67516;SDS011;68821;59.134;37.894;2023-04-03T14:32:25;6.93;;;3.00;;
67516;SDS011;68821;59.134;37.894;2023-04-03T14:34:53;6.45;;;2.50;;
67516;SDS011;68821;59.134;37.894;2023-04-03T14:37:22;6.82;;;2.70;;
67516;SDS011;68821;59.134;37.894;2023-04-03T14:39:50;6.13;;;2.92;;
67516;SDS011;68821;59.134;37.894;2023-04-03T14:42:20;9.13;;;2.67;;
67516;SDS011;68821;59.134;37.894;2023-04-03T14:44:48;9.20;;;2.65;;
67516;SDS011;68821;59.134;37.894;2023-04-03T14:47:15;9.68;;;3.75;;
67516;SDS011;68821;59.134;37.894;2023-04-03T14:49:45;8.95;;;4.18;;
67516;SDS011;68821;59.134;37.894;2023-04-03T14:52:24;12.20;;;5.03;;
67516;SDS011;68821;59.134;37.894;2023-04-03T14:54:53;11.25;;;3.55;;
67516;SDS011;68821;59.134;37.894;2023-04-03T14:57:19;10.95;;;4.38;;
67516;SDS011;68821;59.134;37.894;2023-04-03T14:59:50;11.45;;;4.60;;
67516;SDS011;68821;59.134;37.894;2023-04-03T15:04:57;13.38;;;4.07;;
67516;SDS011;68821;59.134;37.894;2023-04-03T15:07:24;12.02;;;3.97;;
67516;SDS011;68821;59.134;37.894;2023-04-03T15:09:53;10.45;;;3.65;;
67516;SDS011;68821;59.134;37.894;2023-04-03T15:12:22;12.07;;;4.95;;
67516;SDS011;68821;59.134;37.894;2023-04-03T15:14:49;15.55;;;4.15;;
67516;SDS011;68821;59.134;37.894;2023-04-03T15:17:16;12.80;;;3.58;;
67516;SDS011;68821;59.134;37.894;2023-04-03T15:19:47;9.90;;;4.10;;
67516;SDS011;68821;59.134;37.894;2023-04-03T15:22:16;13.80;;;3.67;;
67516;SDS011;68821;59.134;37.894;2023-04-03T15:24:44;11.85;;;3.67;;
67516;SDS011;68821;59.134;37.894;2023-04-03T15:27:11;13.60;;;4.30;;
67516;SDS011;68821;59.134;37.894;2023-04-03T15:29:39;15.68;;;3.83;;
67516;SDS011;68821;59.134;37.894;2023-04-03T15:32:06;12.10;;;3.38;;
67516;SDS011;68821;59.134;37.894;2023-04-03T15:34:35;15.93;;;4.07;;
67516;SDS011;68821;59.134;37.894;2023-04-03T15:37:02;20.50;;;6.22;;
67516;SDS011;68821;59.134;37.894;2023-04-03T15:39:28;20.95;;;5.93;;
67516;SDS011;68821;59.134;37.894;2023-04-03T15:41:54;15.70;;;5.45;;
67516;SDS011;68821;59.134;37.894;2023-04-03T15:44:21;21.13;;;5.68;;
67516;SDS011;68821;59.134;37.894;2023-04-03T15:46:47;14.30;;;4.05;;
67516;SDS011;68821;59.134;37.894;2023-04-03T15:49:19;15.23;;;3.80;;
67516;SDS011;68821;59.134;37.894;2023-04-03T15:51:48;12.57;;;3.25;;
67516;SDS011;68821;59.134;37.894;2023-04-03T15:54:15;13.15;;;3.30;;
67516;SDS011;68821;59.134;37.894;2023-04-03T15:56:41;13.77;;;4.43;;
67516;SDS011;68821;59.134;37.894;2023-04-03T15:59:08;18.70;;;3.58;;
67516;SDS011;68821;59.134;37.894;2023-04-03T16:01:34;20.63;;;4.18;;
67516;SDS011;68821;59.134;37.894;2023-04-03T16:04:03;14.30;;;3.63;;
67516;SDS011;68821;59.134;37.894;2023-04-03T16:06:30;8.40;;;3.00;;
67516;SDS011;68821;59.134;37.894;2023-04-03T16:08:57;13.35;;;3.30;;
67516;SDS011;68821;59.134;37.894;2023-04-03T16:11:24;8.30;;;3.35;;
67516;SDS011;68821;59.134;37.894;2023-04-03T16:13:52;16.92;;;4.55;;
67516;SDS011;68821;59.134;37.894;2023-04-03T16:16:19;17.33;;;3.55;;
67516;SDS011;68821;59.134;37.894;2023-04-03T16:18:46;17.63;;;3.95;;
67516;SDS011;68821;59.134;37.894;2023-04-03T16:21:13;18.05;;;4.57;;
67516;SDS011;68821;59.134;37.894;2023-04-03T16:23:41;8.90;;;3.53;;
67516;SDS011;68821;59.134;37.894;2023-04-03T16:26:08;11.98;;;3.97;;
67516;SDS011;68821;59.134;37.894;2023-04-03T16:28:34;14.10;;;3.00;;
67516;SDS011;68821;59.134;37.894;2023-04-03T16:31:01;18.50;;;3.28;;
67516;SDS011;68821;59.134;37.894;2023-04-03T16:33:28;13.90;;;2.90;;
67516;SDS011;68821;59.134;37.894;2023-04-03T16:35:55;14.45;;;2.90;;
67516;SDS011;68821;59.134;37.894;2023-04-03T16:38:22;9.85;;;2.70;;
67516;SDS011;68821;59.134;37.894;2023-04-03T16:40:48;16.02;;;5.32;;
67516;SDS011;68821;59.134;37.894;2023-04-03T16:43:15;12.23;;;5.10;;
67516;SDS011;68821;59.134;37.894;2023-04-03T16:45:42;12.02;;;4.63;;
67516;SDS011;68821;59.134;37.894;2023-04-03T16:48:08;13.38;;;4.00;;
67516;SDS011;68821;59.134;37.894;2023-04-03T16:50:34;14.75;;;3.65;;
67516;SDS011;68821;59.134;37.894;2023-04-03T16:53:01;23.98;;;7.07;;
67516;SDS011;68821;59.134;37.894;2023-04-03T16:57:55;16.55;;;3.47;;
67516;SDS011;68821;59.134;37.894;2023-04-03T17:00:21;8.82;;;2.80;;
67516;SDS011;68821;59.134;37.894;2023-04-03T17:02:47;13.93;;;3.65;;
67516;SDS011;68821;59.134;37.894;2023-04-03T17:05:13;13.70;;;3.90;;
67516;SDS011;68821;59.134;37.894;2023-04-03T17:07:39;12.45;;;3.50;;